Time;durP1;ratioP1;P1;durP2;ratioP2;P2;SDS_P1;SDS_P2;PMS_P1;PMS_P2;Temp;Humidity;BMP_temperature;BMP_pressure;BME280_temperature;BME280_humidity;BME280_pressure;Samples;Min_cycle;Max_cycle;Signal;HPM_P1;HPM_P2
2022/01/03 00:01:46;;;;;;;2.15;1.10;;;;;;;3.71;96.93;148596.61;1702217;83;21509;-58
2022/01/03 00:04:15;;;;;;;2.90;1.40;;;;;;;3.72;96.83;148600.50;1702713;84;21028;-62
2022/01/03 00:06:47;;;;;;;2.40;1.00;;;;;;;3.72;96.74;148600.50;1702714;82;21469;-61
2022/01/03 00:09:14;;;;;;;4.78;1.27;;;;;;;3.72;96.69;148600.50;1702660;82;21155;-58
2022/01/03 00:11:42;;;;;;;4.00;1.40;;;;;;;3.73;96.61;148603.09;1701828;82;21663;-62
2022/01/03 00:14:10;;;;;;;3.83;1.57;;;;;;;3.77;96.59;148610.81;1702756;82;21092;-59
2022/01/03 00:16:37;;;;;;;2.92;1.20;;;;;;;3.79;96.57;148615.98;1702577;83;21068;-58
2022/01/03 00:19:04;;;;;;;1.85;1.10;;;;;;;3.84;96.59;148630.19;1702662;84;21520;-58
2022/01/03 00:21:42;;;;;;;2.12;1.00;;;;;;;3.87;96.62;148636.67;1702621;84;21174;-62
2022/01/03 00:24:11;;;;;;;2.00;1.20;;;;;;;3.90;96.59;148644.41;1702704;84;21032;-59
2022/01/03 00:26:38;;;;;;;2.98;1.35;;;;;;;3.94;96.50;148653.41;1702736;84;21529;-59
2022/01/03 00:29:16;;;;;;;4.00;1.20;;;;;;;3.95;96.32;148657.31;1696356;83;21506;-58
2022/01/03 00:31:43;;;;;;;3.27;1.17;;;;;;;3.97;96.16;148662.47;1687638;85;21079;-59
2022/01/03 00:34:14;;;;;;;1.75;0.95;;;;;;;4.00;96.09;148670.20;1687586;85;21095;-59
2022/01/03 00:36:42;;;;;;;1.87;1.00;;;;;;;4.03;96.10;148675.37;1687432;84;21071;-59
2022/01/03 00:39:09;;;;;;;3.40;1.15;;;;;;;4.06;96.17;148683.11;1687182;83;21521;-63
2022/01/03 00:41:42;;;;;;;2.08;0.95;;;;;;;4.08;96.11;148688.27;1686625;83;21040;-62
2022/01/03 00:44:10;;;;;;;2.52;1.02;;;;;;;4.09;96.15;148690.84;1687465;85;21147;-58
2022/01/03 00:46:36;;;;;;;3.42;1.00;;;;;;;4.09;96.24;148692.16;1686977;85;21359;-58
2022/01/03 00:49:05;;;;;;;3.90;1.20;;;;;;;4.10;96.47;148693.48;1686940;83;21552;-58
2022/01/03 00:51:31;;;;;;;3.65;1.00;;;;;;;4.11;96.64;148697.33;1687873;85;21003;-58
2022/01/03 00:53:58;;;;;;;2.47;1.17;;;;;;;4.14;96.82;148705.06;1687682;85;21060;-58
2022/01/03 00:56:35;;;;;;;4.20;1.30;;;;;;;4.17;96.97;148711.53;1687874;85;20954;-62
2022/01/03 00:59:16;;;;;;;4.87;1.35;;;;;;;4.21;97.02;148721.86;1687818;84;21493;-62
2022/01/03 01:01:51;;;;;;;2.65;1.27;;;;;;;4.22;97.10;148724.44;1687702;85;21036;-61
2022/01/03 01:04:20;;;;;;;4.35;1.42;;;;;;;4.24;97.28;148728.34;1687874;85;21017;-58
2022/01/03 01:06:55;;;;;;;6.25;1.72;;;;;;;4.26;97.43;148734.77;1687717;85;21008;-59
2022/01/03 01:09:23;;;;;;;6.65;2.15;;;;;;;4.30;97.67;148745.09;1688087;83;21609;-58
2022/01/03 01:11:53;;;;;;;5.15;1.20;;;;;;;4.36;97.89;148759.31;1687668;85;21486;-59
2022/01/03 01:14:22;;;;;;;2.85;1.55;;;;;;;4.38;98.00;148763.20;1687941;85;21060;-59
2022/01/03 01:16:49;;;;;;;2.80;1.45;;;;;;;4.40;98.14;148768.38;1687701;85;21048;-59
2022/01/03 01:19:18;;;;;;;3.72;1.20;;;;;;;4.43;98.32;148776.11;1687786;85;21028;-59
2022/01/03 01:21:50;;;;;;;5.42;1.82;;;;;;;4.47;98.45;148786.44;1687406;85;21132;-58
2022/01/03 01:24:20;;;;;;;6.55;1.55;;;;;;;4.51;98.60;148796.75;1687690;85;21913;-57
2022/01/03 01:29:31;;;;;;;3.08;1.37;;;;;;;4.56;98.84;148809.72;1662830;83;21807;-58
2022/01/03 01:32:01;;;;;;;2.58;1.27;;;;;;;4.59;99.14;148817.45;1687337;85;21060;-57
2022/01/03 01:34:30;;;;;;;4.30;1.20;;;;;;;4.59;99.14;148817.45;1687946;83;20933;-57
2022/01/03 01:36:59;;;;;;;5.85;1.10;;;;;;;4.63;99.42;148826.47;1687314;85;21101;-57
2022/01/03 01:39:29;;;;;;;7.80;1.55;;;;;;;4.67;99.63;148836.84;1687646;84;21359;-58
2022/01/03 01:42:02;;;;;;;3.30;1.22;;;;;;;4.71;99.86;148845.84;1687075;85;21545;-58
2022/01/03 01:44:32;;;;;;;3.20;1.50;;;;;;;4.73;100.00;148851.02;1658592;85;20973;-58
2022/01/03 01:47:05;;;;;;;6.75;1.60;;;;;;;4.77;100.00;148861.39;1687044;85;21091;-60
2022/01/03 01:49:39;;;;;;;3.70;1.35;;;;;;;4.81;100.00;148871.72;1687359;85;21121;-58
2022/01/03 01:52:12;;;;;;;3.25;1.55;;;;;;;4.85;100.00;148882.05;1657945;85;26890;-58
2022/01/03 01:54:39;;;;;;;5.62;1.35;;;;;;;4.91;100.00;148894.95;1687508;85;20955;-58
2022/01/03 01:57:19;;;;;;;4.47;1.30;;;;;;;4.99;100.00;148916.92;1686718;85;21111;-58
2022/01/03 02:00:12;;;;;;;4.80;1.80;;;;;;;4.99;100.00;148916.92;1686393;85;20980;-58
2022/01/03 02:03:06;;;;;;;11.35;1.77;;;;;;;5.02;100.00;148923.41;1686263;85;21234;-57
2022/01/03 02:05:40;;;;;;;3.33;1.50;;;;;;;5.06;100.00;148933.73;1687162;85;21279;-58
2022/01/03 02:08:16;;;;;;;6.30;1.50;;;;;;;5.11;100.00;148946.64;1686841;85;21621;-59
2022/01/03 02:10:57;;;;;;;5.20;1.70;;;;;;;5.16;100.00;148959.56;1686958;84;21079;-58
2022/01/03 02:13:24;;;;;;;3.65;1.75;;;;;;;5.23;100.00;148975.09;1686901;83;21013;-57
2022/01/03 02:16:03;;;;;;;12.13;2.20;;;;;;;5.28;100.00;148988.02;1686519;85;21180;-59
2022/01/03 02:18:30;;;;;;;7.67;2.10;;;;;;;5.32;100.00;148998.34;1687154;85;20878;-59
2022/01/03 02:20:57;;;;;;;10.10;2.10;;;;;;;5.35;100.00;149006.09;1686879;83;21129;-58
2022/01/03 02:23:23;;;;;;;6.42;1.72;;;;;;;5.38;100.00;149013.84;1687437;85;21580;-57
2022/01/03 02:25:50;;;;;;;8.25;3.00;;;;;;;5.43;100.00;149026.81;1687324;85;21644;-58
2022/01/03 02:28:20;;;;;;;7.47;2.20;;;;;;;5.49;100.00;149039.72;1687569;85;21116;-58
2022/01/03 02:30:46;;;;;;;8.20;2.50;;;;;;;5.53;100.00;149051.37;1685439;83;20964;-58
2022/01/03 02:33:13;;;;;;;8.33;2.33;;;;;;;5.57;100.00;149060.39;1685434;85;21017;-57
2022/01/03 02:35:41;;;;;;;10.50;2.55;;;;;;;5.62;100.00;149072.03;1685503;84;21132;-58
2022/01/03 02:38:10;;;;;;;8.75;2.72;;;;;;;5.62;100.00;149072.03;1685620;84;21024;-58
2022/01/03 02:40:38;;;;;;;7.15;2.58;;;;;;;5.64;100.00;149078.52;1685477;85;21095;-59
2022/01/03 02:43:04;;;;;;;8.60;2.60;;;;;;;5.67;100.00;149084.95;1685483;85;21104;-58
2022/01/03 02:45:32;;;;;;;9.38;2.60;;;;;;;5.72;100.00;149097.87;1685903;84;21395;-58
2022/01/03 02:48:03;;;;;;;9.73;2.83;;;;;;;5.74;100.00;149104.34;1685402;84;21108;-58
2022/01/03 02:50:32;;;;;;;9.98;3.02;;;;;;;5.76;100.00;149108.25;1685495;84;20978;-58
2022/01/03 02:52:58;;;;;;;9.63;3.52;;;;;;;5.80;100.00;149118.59;1685357;85;20953;-58
2022/01/03 02:55:26;;;;;;;6.67;3.12;;;;;;;5.83;100.00;149126.34;1685681;84;21021;-58
2022/01/03 02:57:56;;;;;;;8.53;3.40;;;;;;;5.86;100.00;149134.09;1685107;85;21664;-59
2022/01/03 03:00:27;;;;;;;10.88;3.27;;;;;;;5.92;100.00;149148.33;1685959;85;21021;-62
2022/01/03 03:02:54;;;;;;;10.90;3.70;;;;;;;5.97;100.00;149161.25;1685213;85;21505;-62
2022/01/03 03:05:22;;;;;;;12.45;4.10;;;;;;;6.01;100.00;149171.63;1685672;84;21551;-62
2022/01/03 03:07:49;;;;;;;7.33;3.50;;;;;;;6.05;100.00;149179.39;1684778;85;21091;-62
2022/01/03 03:10:20;;;;;;;12.75;4.25;;;;;;;6.09;100.00;149189.77;1685498;85;21076;-63
2022/01/03 03:12:48;;;;;;;9.75;3.87;;;;;;;6.12;100.00;149198.80;1685362;84;21024;-63
2022/01/03 03:15:16;;;;;;;8.03;3.62;;;;;;;6.16;100.00;149207.86;1685341;84;21068;-64
2022/01/03 03:17:44;;;;;;;8.38;3.75;;;;;;;6.18;100.00;149213.03;1685401;83;21175;-62
2022/01/03 03:20:25;;;;;;;10.75;4.20;;;;;;;6.18;100.00;149213.03;1685186;84;21335;-63
2022/01/03 03:22:54;;;;;;;11.55;4.30;;;;;;;6.23;100.00;149225.95;1685373;84;21076;-64
2022/01/03 03:25:28;;;;;;;15.60;4.47;;;;;;;6.23;100.00;149225.95;1685425;85;21005;-63
2022/01/03 03:28:09;;;;;;;9.63;4.12;;;;;;;6.23;100.00;149225.95;1684977;83;21099;-62
2022/01/03 03:30:41;;;;;;;9.80;4.00;;;;;;;6.24;100.00;149228.53;1684678;83;20978;-65
2022/01/03 03:33:19;;;;;;;9.80;3.70;;;;;;;6.26;100.00;149233.70;1684744;84;21083;-63
2022/01/03 03:35:50;;;;;;;15.23;3.95;;;;;;;6.32;100.00;149247.94;1684850;85;21041;-62
2022/01/03 03:38:19;;;;;;;12.53;4.37;;;;;;;6.32;100.00;149247.94;1685479;83;21036;-63
2022/01/03 03:40:47;;;;;;;14.63;4.25;;;;;;;6.33;100.00;149249.27;1685355;84;21679;-63
2022/01/03 03:43:15;;;;;;;9.85;3.60;;;;;;;6.33;100.00;149249.27;1685383;84;21080;-63
2022/01/03 03:45:42;;;;;;;17.40;3.67;;;;;;;6.34;100.00;149251.84;1684843;84;21103;-63
2022/01/03 03:48:09;;;;;;;12.55;3.90;;;;;;;6.35;100.00;149255.70;1685154;85;21127;-63
2022/01/03 03:50:37;;;;;;;14.98;4.33;;;;;;;6.37;100.00;149259.59;1685194;83;21028;-63
2022/01/03 03:53:06;;;;;;;12.73;4.65;;;;;;;6.38;100.00;149262.19;1684797;83;21088;-62
2022/01/03 03:55:34;;;;;;;13.93;4.15;;;;;;;6.37;100.00;149259.59;1685717;83;22016;-63
2022/01/03 03:58:02;;;;;;;12.55;4.15;;;;;;;6.33;100.00;149250.53;1685023;84;21012;-62
2022/01/03 04:00:29;;;;;;;10.90;4.20;;;;;;;6.33;100.00;149250.53;1685672;84;21017;-63
2022/01/03 04:02:58;;;;;;;17.12;4.12;;;;;;;6.33;100.00;149249.27;1685015;84;21075;-62
2022/01/03 04:05:25;;;;;;;10.90;3.77;;;;;;;6.29;100.00;149241.47;1685777;85;21020;-63
2022/01/03 04:07:54;;;;;;;13.10;3.92;;;;;;;6.26;100.00;149233.70;1685233;83;21868;-62
2022/01/03 04:10:21;;;;;;;13.32;3.80;;;;;;;6.22;100.00;149223.37;1685415;84;21375;-63
2022/01/03 04:12:49;;;;;;;13.20;4.63;;;;;;;6.16;100.00;149209.13;1684893;84;21181;-62
2022/01/03 04:15:17;;;;;;;13.15;4.60;;;;;;;6.10;100.00;149192.36;1685741;85;21038;-59
2022/01/03 04:17:43;;;;;;;15.32;5.05;;;;;;;6.05;100.00;149179.39;1685282;85;21327;-57
2022/01/03 04:20:15;;;;;;;18.82;5.00;;;;;;;6.01;100.00;149171.63;1685245;83;22282;-58
2022/01/03 04:22:42;;;;;;;15.23;5.78;;;;;;;5.93;100.00;149150.91;1684887;85;21060;-58
2022/01/03 04:25:10;;;;;;;16.90;6.33;;;;;;;5.90;100.00;149143.16;1685150;85;21091;-58
2022/01/03 04:27:37;;;;;;;15.53;6.25;;;;;;;5.88;100.00;149138.00;1685126;84;20918;-58
2022/01/03 04:30:06;;;;;;;12.30;5.92;;;;;;;5.82;100.00;149122.44;1695480;83;21077;-58
2022/01/03 04:32:35;;;;;;;17.40;6.75;;;;;;;5.76;100.00;149106.94;1722636;83;21125;-59
2022/01/03 04:35:01;;;;;;;13.75;6.03;;;;;;;5.72;100.00;149099.19;1722580;82;21478;-59
2022/01/03 04:37:29;;;;;;;21.60;7.22;;;;;;;5.69;100.00;149090.12;1722842;83;21084;-59
2022/01/03 04:39:57;;;;;;;13.62;6.62;;;;;;;5.65;100.00;149081.09;1694102;83;21124;-58
2022/01/03 04:42:24;;;;;;;16.95;8.10;;;;;;;5.58;100.00;149062.97;1722736;82;20999;-58
2022/01/03 04:44:50;;;;;;;15.25;7.20;;;;;;;5.55;100.00;149056.53;1722237;82;21125;-59
2022/01/03 04:47:18;;;;;;;14.70;6.90;;;;;;;5.50;100.00;149042.31;1722551;83;21073;-60
2022/01/03 04:49:44;;;;;;;15.55;7.25;;;;;;;5.48;100.00;149038.41;1722321;83;21120;-58
2022/01/03 04:52:11;;;;;;;14.87;7.50;;;;;;;5.45;100.00;149031.97;1722411;82;21387;-63
2022/01/03 04:54:38;;;;;;;17.82;7.75;;;;;;;5.43;100.00;149026.81;1722205;83;20941;-62
2022/01/03 04:57:05;;;;;;;18.77;7.37;;;;;;;5.42;100.00;149024.22;1722054;82;20973;-63
2022/01/03 04:59:33;;;;;;;19.95;7.97;;;;;;;5.40;100.00;149019.00;1722499;83;21509;-62
2022/01/03 05:02:03;;;;;;;16.65;7.60;;;;;;;5.38;100.00;149012.58;1722439;82;21065;-63
2022/01/03 05:04:28;;;;;;;14.43;7.72;;;;;;;5.29;100.00;148990.59;1722310;82;21376;-62
2022/01/03 05:06:58;;;;;;;17.15;8.33;;;;;;;5.29;100.00;148990.59;1722384;83;21160;-63
2022/01/03 05:09:26;;;;;;;22.48;7.97;;;;;;;5.22;100.00;148972.52;1722882;83;22020;-62
2022/01/03 05:11:52;;;;;;;15.20;8.68;;;;;;;5.22;100.00;148972.52;1722752;81;21073;-58
2022/01/03 05:14:20;;;;;;;16.15;8.95;;;;;;;5.19;100.00;148964.72;1723069;83;21027;-59
2022/01/03 05:16:46;;;;;;;14.90;8.33;;;;;;;5.15;100.00;148956.97;1722734;82;21062;-62
2022/01/03 05:19:13;;;;;;;18.25;9.30;;;;;;;5.13;100.00;148950.53;1722930;82;21514;-62
2022/01/03 05:21:40;;;;;;;14.38;8.25;;;;;;;5.10;100.00;148944.06;1722652;82;21021;-62
2022/01/03 05:24:07;;;;;;;12.63;7.85;;;;;;;5.07;100.00;148936.31;1722630;81;20997;-62
2022/01/03 05:26:34;;;;;;;15.95;8.25;;;;;;;5.06;100.00;148933.73;1722867;83;21533;-59
2022/01/03 05:29:00;;;;;;;15.38;7.78;;;;;;;5.05;100.00;148929.84;1722453;83;21085;-58
2022/01/03 05:31:27;;;;;;;16.15;8.78;;;;;;;5.02;100.00;148923.41;1696300;83;21045;-58
2022/01/03 05:33:55;;;;;;;12.63;7.85;;;;;;;5.02;100.00;148923.41;1685069;84;21120;-58
2022/01/03 05:36:22;;;;;;;15.55;9.33;;;;;;;5.01;100.00;148920.81;1685507;84;21025;-63
2022/01/03 05:38:49;;;;;;;15.13;8.70;;;;;;;5.01;100.00;148920.81;1685232;84;21561;-61
2022/01/03 05:41:16;;;;;;;19.55;9.85;;;;;;;5.01;100.00;148920.81;1685298;85;21525;-62
2022/01/03 05:43:45;;;;;;;19.35;9.78;;;;;;;4.99;100.00;148915.66;1685210;84;21103;-63
2022/01/03 05:46:13;;;;;;;16.90;9.85;;;;;;;5.00;100.00;148918.23;1685575;85;21446;-63
2022/01/03 05:48:41;;;;;;;15.63;9.38;;;;;;;5.00;100.00;148918.23;1661669;85;21037;-62
2022/01/03 05:51:10;;;;;;;17.35;9.70;;;;;;;4.99;100.00;148915.66;1685336;84;21474;-62
2022/01/03 05:53:36;;;;;;;16.10;8.93;;;;;;;4.98;100.00;148913.06;1685064;84;21450;-62
2022/01/03 05:56:04;;;;;;;17.37;9.68;;;;;;;4.95;100.00;148906.59;1684528;84;21085;-62
2022/01/03 05:58:32;;;;;;;17.77;9.73;;;;;;;4.93;100.00;148901.44;1684844;84;21999;-62
2022/01/03 06:01:01;;;;;;;15.80;9.55;;;;;;;4.92;100.00;148897.53;1684280;84;21112;-62
2022/01/03 06:03:33;;;;;;;18.85;10.20;;;;;;;4.92;100.00;148897.53;1685177;84;20978;-63
2022/01/03 06:08:25;;;;;;;14.10;8.98;;;;;;;4.89;100.00;148891.09;1685662;84;20994;-62
2022/01/03 06:10:52;;;;;;;17.25;8.70;;;;;;;4.88;100.00;148889.78;1685314;85;21146;-62
2022/01/03 06:13:22;;;;;;;16.85;9.25;;;;;;;4.87;100.00;148887.20;1685545;84;21443;-62
2022/01/03 06:15:51;;;;;;;25.05;9.28;;;;;;;4.84;100.00;148879.47;1685469;85;21473;-62
2022/01/03 06:18:18;;;;;;;18.82;9.35;;;;;;;4.82;100.00;148872.98;1685288;85;21064;-63
2022/01/03 06:20:48;;;;;;;20.60;9.78;;;;;;;4.79;100.00;148865.23;1685179;83;21375;-62
2022/01/03 06:23:19;;;;;;;17.92;8.98;;;;;;;4.79;100.00;148866.56;1685489;84;21473;-62
2022/01/03 06:25:46;;;;;;;17.65;10.18;;;;;;;4.78;100.00;148862.66;1685335;83;21541;-62
2022/01/03 06:28:14;;;;;;;19.07;9.98;;;;;;;4.77;100.00;148861.39;1685511;84;21075;-62
2022/01/03 06:30:43;;;;;;;23.25;10.18;;;;;;;4.77;100.00;148860.08;1685227;83;21032;-58
2022/01/03 06:33:11;;;;;;;19.90;10.88;;;;;;;4.79;100.00;148866.56;1685545;84;21048;-58
2022/01/03 06:35:39;;;;;;;20.48;10.58;;;;;;;4.79;100.00;148866.56;1685306;85;21131;-58
2022/01/03 06:38:05;;;;;;;20.70;11.40;;;;;;;4.79;100.00;148865.23;1684940;83;21172;-62
2022/01/03 06:40:35;;;;;;;21.37;11.20;;;;;;;4.78;100.00;148863.97;1685126;84;21009;-62
2022/01/03 06:43:02;;;;;;;18.10;10.75;;;;;;;4.76;100.00;148858.81;1684716;84;21075;-61
2022/01/03 06:45:29;;;;;;;21.65;11.30;;;;;;;4.76;100.00;148857.50;1685070;85;21017;-62
2022/01/03 06:47:57;;;;;;;23.02;11.55;;;;;;;4.76;100.00;148858.81;1685271;85;21095;-63
2022/01/03 06:50:25;;;;;;;20.82;10.00;;;;;;;4.80;100.00;148869.12;1685243;85;21009;-63
2022/01/03 06:52:51;;;;;;;20.62;10.80;;;;;;;4.83;100.00;148876.88;1684917;83;21107;-63
2022/01/03 06:55:18;;;;;;;22.93;11.55;;;;;;;4.83;100.00;148876.88;1685437;85;21506;-62
2022/01/03 06:57:48;;;;;;;18.82;10.40;;;;;;;4.80;100.00;148869.12;1685136;84;21107;-63
2022/01/03 07:00:16;;;;;;;16.95;10.13;;;;;;;4.78;100.00;148862.66;1685461;84;21803;-63
2022/01/03 07:02:43;;;;;;;21.77;10.28;;;;;;;4.81;100.00;148870.41;1685421;83;21056;-62
2022/01/03 07:05:11;;;;;;;20.65;10.72;;;;;;;4.84;100.00;148879.47;1685227;85;21064;-62
2022/01/03 07:07:38;;;;;;;17.60;10.50;;;;;;;4.86;100.00;148884.63;1685287;85;20994;-62
2022/01/03 07:10:06;;;;;;;16.50;9.50;;;;;;;4.84;100.00;148879.47;1684821;84;21422;-62
2022/01/03 07:12:34;;;;;;;17.37;10.25;;;;;;;4.79;100.00;148866.56;1685086;84;21458;-62
2022/01/03 07:20:13;;;;;;;18.25;10.13;;;;;;;4.67;100.00;148836.84;1685411;83;21076;-62
2022/01/03 07:22:40;;;;;;;18.60;10.10;;;;;;;4.67;100.00;148836.84;1685180;84;21025;-62
2022/01/03 07:25:08;;;;;;;19.62;10.25;;;;;;;4.64;100.00;148829.09;1685320;85;21916;-62
2022/01/03 07:27:36;;;;;;;23.55;10.72;;;;;;;4.64;100.00;148829.09;1685403;85;20953;-62
2022/01/03 07:30:05;;;;;;;20.80;11.28;;;;;;;4.66;100.00;148834.25;1685221;84;21608;-62
2022/01/03 07:32:32;;;;;;;20.50;10.90;;;;;;;4.69;100.00;148842.00;1687305;82;21048;-62
2022/01/03 07:35:07;;;;;;;20.97;11.40;;;;;;;4.77;100.00;148861.39;1687572;85;21083;-62
2022/01/03 07:37:35;;;;;;;18.32;10.35;;;;;;;4.90;100.00;148892.38;1687561;85;21964;-62
2022/01/03 07:40:03;;;;;;;18.50;10.45;;;;;;;4.97;100.00;148910.44;1687332;85;21632;-63
2022/01/03 07:42:30;;;;;;;18.32;10.20;;;;;;;4.97;100.00;148910.44;1688202;85;21439;-63
2022/01/03 07:45:00;;;;;;;19.52;10.85;;;;;;;5.11;100.00;148946.64;1687294;85;20988;-63
2022/01/03 07:47:27;;;;;;;16.87;10.10;;;;;;;5.16;100.00;148958.28;1687738;83;21084;-62
2022/01/03 07:49:53;;;;;;;20.80;11.30;;;;;;;5.16;100.00;148958.28;1687087;85;21125;-62
2022/01/03 07:52:22;;;;;;;20.30;11.33;;;;;;;5.19;100.00;148964.72;1687566;85;21068;-62
2022/01/03 07:54:52;;;;;;;18.67;11.38;;;;;;;5.21;100.00;148969.94;1686863;85;21079;-62
2022/01/03 07:57:17;;;;;;;21.48;11.70;;;;;;;5.24;100.00;148978.95;1687382;85;21123;-62
2022/01/03 07:59:45;;;;;;;18.07;10.48;;;;;;;5.25;100.00;148980.27;1687443;85;20993;-62
2022/01/03 08:02:12;;;;;;;19.62;11.53;;;;;;;5.24;100.00;148978.95;1687336;84;21113;-62
2022/01/03 08:04:39;;;;;;;21.82;12.05;;;;;;;5.23;100.00;148976.37;1687954;85;21034;-62
2022/01/03 08:07:06;;;;;;;21.23;11.65;;;;;;;5.19;100.00;148966.03;1687357;85;21060;-63
2022/01/03 08:09:34;;;;;;;20.75;11.05;;;;;;;5.18;100.00;148963.45;1687884;83;21012;-62
2022/01/03 08:12:01;;;;;;;21.52;11.85;;;;;;;5.18;100.00;148963.45;1687156;85;21051;-62
2022/01/03 08:14:28;;;;;;;18.95;11.00;;;;;;;5.18;100.00;148963.45;1687728;83;21148;-63
2022/01/03 08:16:56;;;;;;;18.07;10.93;;;;;;;5.19;100.00;148966.03;1687633;85;21028;-62
2022/01/03 08:19:23;;;;;;;21.68;11.97;;;;;;;5.20;100.00;148967.34;1687847;85;21060;-63
2022/01/03 08:21:50;;;;;;;19.90;11.33;;;;;;;5.31;100.00;148995.77;1687228;85;21131;-64
2022/01/03 08:24:18;;;;;;;22.00;11.83;;;;;;;5.31;100.00;148995.77;1687263;85;21410;-64
2022/01/03 08:26:44;;;;;;;22.00;12.00;;;;;;;5.36;100.00;149008.67;1687496;85;20984;-63
2022/01/03 08:29:12;;;;;;;23.15;12.05;;;;;;;5.42;100.00;149024.22;1687351;83;21100;-63
2022/01/03 08:31:39;;;;;;;20.85;11.65;;;;;;;5.42;100.00;149024.22;1686827;83;20937;-63
2022/01/03 08:34:06;;;;;;;23.57;12.85;;;;;;;5.43;100.00;149026.81;1685010;85;21554;-64
2022/01/03 08:36:33;;;;;;;20.68;11.08;;;;;;;5.43;100.00;149026.81;1685608;85;21025;-62
2022/01/03 08:39:02;;;;;;;22.87;11.35;;;;;;;5.47;100.00;149034.56;1684935;84;21056;-62
2022/01/03 08:41:29;;;;;;;19.95;11.00;;;;;;;5.51;100.00;149044.89;1685929;83;20978;-63
2022/01/03 08:43:55;;;;;;;22.85;12.00;;;;;;;5.54;100.00;149052.64;1685114;85;21041;-62
2022/01/03 08:46:23;;;;;;;20.50;11.95;;;;;;;5.56;100.00;149057.80;1685358;83;21076;-64
2022/01/03 08:48:52;;;;;;;18.10;11.10;;;;;;;5.56;100.00;149057.80;1685398;84;21080;-63
2022/01/03 08:51:18;;;;;;;18.55;10.30;;;;;;;5.55;100.00;149055.22;1685282;83;21125;-63
2022/01/03 08:53:44;;;;;;;19.82;11.22;;;;;;;5.57;100.00;149060.39;1684971;85;20961;-63
2022/01/03 08:56:11;;;;;;;22.52;12.15;;;;;;;5.48;100.00;149037.14;1685204;84;21743;-63
2022/01/03 08:58:41;;;;;;;19.10;11.43;;;;;;;5.48;100.00;149038.41;1685358;85;21021;-63
2022/01/03 09:01:08;;;;;;;21.60;11.88;;;;;;;5.48;100.00;149037.14;1685335;84;21036;-63
2022/01/03 09:03:34;;;;;;;19.85;12.30;;;;;;;5.45;100.00;149031.97;1685471;84;21065;-63
2022/01/03 09:06:02;;;;;;;19.32;10.72;;;;;;;5.50;100.00;149042.31;1684796;83;21110;-63
2022/01/03 09:08:29;;;;;;;18.10;11.10;;;;;;;5.51;100.00;149044.89;1685274;85;20989;-62
2022/01/03 09:10:56;;;;;;;20.45;11.83;;;;;;;5.47;100.00;149034.56;1684385;83;21554;-62
2022/01/03 09:13:25;;;;;;;21.42;11.50;;;;;;;5.48;100.00;149037.14;1685255;84;20994;-62
2022/01/03 09:15:51;;;;;;;20.88;11.68;;;;;;;5.50;100.00;149042.31;1684928;84;21137;-63
2022/01/03 09:18:22;;;;;;;21.42;11.53;;;;;;;5.54;100.00;149052.64;1685243;85;21499;-63
2022/01/03 09:20:49;;;;;;;18.80;10.90;;;;;;;5.58;100.00;149062.97;1685335;85;21111;-61
2022/01/03 09:23:21;;;;;;;21.97;11.68;;;;;;;5.59;100.00;149065.55;1685309;84;21064;-63
2022/01/03 09:31:16;;;;;;;20.30;12.37;;;;;;;5.62;100.00;149073.31;1685584;82;20161;-61
2022/01/03 09:33:43;;;;;;;23.57;13.35;;;;;;;5.45;100.00;149031.97;1687591;85;21072;-63
2022/01/03 09:36:10;;;;;;;22.10;13.03;;;;;;;5.45;100.00;149031.97;1687595;85;21020;-61
2022/01/03 09:38:37;;;;;;;21.45;12.00;;;;;;;5.44;100.00;149029.39;1687765;85;21017;-63
2022/01/03 09:41:06;;;;;;;26.00;13.28;;;;;;;5.42;100.00;149024.22;1687130;85;21426;-63
2022/01/03 09:43:52;;;;;;;21.57;12.53;;;;;;;5.38;100.00;149013.84;1687664;83;21484;-62
2022/01/03 09:46:25;;;;;;;24.57;13.27;;;;;;;5.35;100.00;149006.09;1687825;85;21321;-63
2022/01/03 09:48:58;;;;;;;23.57;12.50;;;;;;;5.37;100.00;149011.25;1687653;85;21000;-63
2022/01/03 09:51:31;;;;;;;22.00;12.35;;;;;;;5.36;100.00;149008.67;1687794;85;21017;-59
2022/01/03 09:54:04;;;;;;;27.40;14.20;;;;;;;5.34;100.00;149003.52;1687437;84;21835;-58
2022/01/03 09:56:34;;;;;;;24.65;12.80;;;;;;;5.33;100.00;149000.92;1687519;85;20965;-58
2022/01/03 09:59:01;;;;;;;27.10;14.80;;;;;;;5.40;100.00;149019.00;1687448;85;21103;-58
2022/01/03 10:01:29;;;;;;;26.60;13.40;;;;;;;5.40;100.00;149019.00;1687404;85;21012;-58
2022/01/03 10:03:56;;;;;;;23.87;12.93;;;;;;;5.42;100.00;149022.91;1687845;85;21071;-59
2022/01/03 10:06:24;;;;;;;27.02;13.00;;;;;;;5.47;100.00;149034.56;1687370;85;21640;-58
2022/01/03 10:08:50;;;;;;;21.77;12.45;;;;;;;5.51;100.00;149044.89;1687243;84;21076;-59
2022/01/03 10:11:19;;;;;;;21.33;11.80;;;;;;;5.42;100.00;149024.22;1687488;85;21056;-58
2022/01/03 10:13:45;;;;;;;19.92;11.93;;;;;;;5.42;100.00;149024.22;1659205;85;20977;-60
2022/01/03 10:16:12;;;;;;;19.37;11.75;;;;;;;5.41;100.00;149021.59;1687644;85;21066;-58
2022/01/03 10:18:38;;;;;;;19.15;11.48;;;;;;;5.42;100.00;149024.22;1687886;83;21801;-58
2022/01/03 10:21:07;;;;;;;20.62;12.37;;;;;;;5.43;100.00;149026.81;1687316;85;21213;-60
2022/01/03 10:23:34;;;;;;;20.97;11.65;;;;;;;5.41;100.00;149021.59;1687964;85;21110;-58
2022/01/03 10:26:16;;;;;;;19.35;11.45;;;;;;;5.42;100.00;149024.22;1687601;85;20960;-58
2022/01/03 10:28:43;;;;;;;20.25;11.78;;;;;;;5.41;100.00;149020.31;1687250;83;21015;-59
2022/01/03 10:31:21;;;;;;;19.62;11.57;;;;;;;5.42;100.00;149024.22;1687426;85;22067;-58
2022/01/03 10:34:06;;;;;;;20.27;11.75;;;;;;;5.43;100.00;149026.81;1687071;85;21065;-59
2022/01/03 10:36:35;;;;;;;20.15;11.68;;;;;;;5.46;100.00;149033.23;1687594;85;21020;-59
2022/01/03 10:39:21;;;;;;;19.62;12.15;;;;;;;5.47;100.00;149035.81;1687589;84;21126;-59
2022/01/03 10:41:52;;;;;;;20.62;11.90;;;;;;;5.50;100.00;149042.31;1687288;85;21052;-58
2022/01/03 10:44:34;;;;;;;20.43;12.18;;;;;;;5.50;100.00;149043.56;1687791;85;21164;-58
2022/01/03 10:47:02;;;;;;;21.77;12.70;;;;;;;5.48;100.00;149037.14;1687521;85;21068;-58
2022/01/03 10:49:29;;;;;;;23.52;12.28;;;;;;;5.49;100.00;149040.98;1687844;85;21514;-58
2022/01/03 10:52:18;;;;;;;20.80;11.60;;;;;;;5.51;100.00;149046.16;1687372;85;21024;-58
2022/01/03 10:55:07;;;;;;;24.05;12.93;;;;;;;5.51;100.00;149046.16;1686915;83;21009;-58
2022/01/03 10:57:56;;;;;;;23.57;13.38;;;;;;;5.47;100.00;149034.56;1687652;83;21126;-58
2022/01/03 11:00:31;;;;;;;22.55;12.43;;;;;;;5.43;100.00;149026.81;1687352;84;21081;-59
2022/01/03 11:03:20;;;;;;;22.87;12.15;;;;;;;5.43;100.00;149026.81;1687221;83;21062;-58
2022/01/03 11:05:51;;;;;;;22.30;12.78;;;;;;;5.41;100.00;149021.59;1684245;85;20937;-58
2022/01/03 11:11:02;;;;;;;22.52;12.58;;;;;;;5.38;100.00;149013.84;1687338;83;21504;-60
2022/01/03 11:13:29;;;;;;;21.97;12.68;;;;;;;5.46;100.00;149033.23;1687784;85;21020;-58
2022/01/03 11:16:00;;;;;;;23.32;12.75;;;;;;;5.48;100.00;149037.14;1687119;83;21091;-57
2022/01/03 11:18:32;;;;;;;25.90;13.68;;;;;;;5.50;100.00;149042.31;1687453;85;21004;-58
2022/01/03 11:21:18;;;;;;;21.60;12.85;;;;;;;5.52;100.00;149047.47;1687659;84;21083;-58
2022/01/03 11:24:11;;;;;;;21.90;12.63;;;;;;;5.56;100.00;149057.80;1687071;85;20961;-58
2022/01/03 11:26:47;;;;;;;22.58;13.45;;;;;;;5.58;100.00;149064.28;1687328;85;21009;-58
2022/01/03 11:29:17;;;;;;;25.70;14.53;;;;;;;5.57;100.00;149060.39;1687532;85;21063;-60
2022/01/03 11:31:44;;;;;;;25.45;13.78;;;;;;;5.59;100.00;149065.55;1687286;85;21077;-60
2022/01/03 11:34:12;;;;;;;26.00;13.60;;;;;;;5.62;100.00;149073.31;1684839;82;21136;-63
2022/01/03 11:36:40;;;;;;;23.10;13.05;;;;;;;5.69;100.00;149091.44;1685495;84;21009;-63
2022/01/03 11:39:11;;;;;;;26.27;14.75;;;;;;;5.69;100.00;149091.44;1685061;83;21739;-63
2022/01/03 11:41:42;;;;;;;23.50;13.25;;;;;;;5.72;100.00;149099.19;1685629;84;21021;-63
2022/01/03 11:44:12;;;;;;;24.12;13.20;;;;;;;5.78;100.00;149112.11;1684906;83;21784;-63
2022/01/03 11:46:40;;;;;;;24.70;14.40;;;;;;;5.82;100.00;149122.44;1685387;84;20981;-62